sensor_id;sensor_type;location;lat;lon;timestamp;temperature;humidity
2957;DHT22;1488;51.548;7.222;2022-07-29T00:00:06;26.60;61.70
2957;DHT22;1488;51.548;7.222;2022-07-29T00:02:34;26.60;61.80
2957;DHT22;1488;51.548;7.222;2022-07-29T00:05:01;26.50;61.60
2957;DHT22;1488;51.548;7.222;2022-07-29T00:07:28;26.60;61.80
2957;DHT22;1488;51.548;7.222;2022-07-29T00:09:55;26.50;61.70
2957;DHT22;1488;51.548;7.222;2022-07-29T00:12:24;26.60;61.80
2957;DHT22;1488;51.548;7.222;2022-07-29T00:14:53;26.60;61.80
2957;DHT22;1488;51.548;7.222;2022-07-29T00:17:20;26.60;61.80
2957;DHT22;1488;51.548;7.222;2022-07-29T00:19:46;26.60;61.70
2957;DHT22;1488;51.548;7.222;2022-07-29T00:22:13;26.60;61.70
2957;DHT22;1488;51.548;7.222;2022-07-29T00:24:40;26.60;61.70
2957;DHT22;1488;51.548;7.222;2022-07-29T00:27:07;26.60;61.70
2957;DHT22;1488;51.548;7.222;2022-07-29T00:29:34;26.60;61.70
2957;DHT22;1488;51.548;7.222;2022-07-29T00:32:02;26.60;61.80
2957;DHT22;1488;51.548;7.222;2022-07-29T00:34:29;26.60;61.80
2957;DHT22;1488;51.548;7.222;2022-07-29T00:37:25;26.60;61.70
2957;DHT22;1488;51.548;7.222;2022-07-29T00:39:52;26.50;61.80
2957;DHT22;1488;51.548;7.222;2022-07-29T00:42:19;26.50;61.70
2957;DHT22;1488;51.548;7.222;2022-07-29T00:44:45;26.50;61.80
2957;DHT22;1488;51.548;7.222;2022-07-29T00:47:14;26.50;61.70
2957;DHT22;1488;51.548;7.222;2022-07-29T00:49:41;26.50;61.70
2957;DHT22;1488;51.548;7.222;2022-07-29T00:52:09;26.50;61.70
2957;DHT22;1488;51.548;7.222;2022-07-29T00:54:38;26.50;61.70
2957;DHT22;1488;51.548;7.222;2022-07-29T00:57:06;26.60;61.90
2957;DHT22;1488;51.548;7.222;2022-07-29T00:59:33;26.60;61.80
2957;DHT22;1488;51.548;7.222;2022-07-29T01:02:00;26.50;61.80
2957;DHT22;1488;51.548;7.222;2022-07-29T01:04:29;26.60;61.90
2957;DHT22;1488;51.548;7.222;2022-07-29T01:06:57;26.60;61.90
2957;DHT22;1488;51.548;7.222;2022-07-29T01:09:24;26.50;61.70
2957;DHT22;1488;51.548;7.222;2022-07-29T01:11:52;26.60;61.90
2957;DHT22;1488;51.548;7.222;2022-07-29T01:14:19;26.60;62.00
2957;DHT22;1488;51.548;7.222;2022-07-29T01:16:51;26.60;62.00
2957;DHT22;1488;51.548;7.222;2022-07-29T01:19:47;26.60;62.00
2957;DHT22;1488;51.548;7.222;2022-07-29T01:22:27;26.60;62.00
2957;DHT22;1488;51.548;7.222;2022-07-29T01:25:17;26.60;62.10
2957;DHT22;1488;51.548;7.222;2022-07-29T01:27:56;26.60;62.00
2957;DHT22;1488;51.548;7.222;2022-07-29T01:30:29;26.50;62.20
2957;DHT22;1488;51.548;7.222;2022-07-29T01:33:05;26.50;62.10
2957;DHT22;1488;51.548;7.222;2022-07-29T01:35:36;26.50;62.10
2957;DHT22;1488;51.548;7.222;2022-07-29T01:38:09;26.50;62.20
2957;DHT22;1488;51.548;7.222;2022-07-29T01:40:43;26.60;62.20
2957;DHT22;1488;51.548;7.222;2022-07-29T01:43:15;26.50;62.20
2957;DHT22;1488;51.548;7.222;2022-07-29T01:45:47;26.50;62.10
2957;DHT22;1488;51.548;7.222;2022-07-29T01:48:20;26.60;62.20
2957;DHT22;1488;51.548;7.222;2022-07-29T01:50:50;26.60;62.20
2957;DHT22;1488;51.548;7.222;2022-07-29T01:53:25;26.60;62.30
2957;DHT22;1488;51.548;7.222;2022-07-29T01:55:55;26.60;62.10
2957;DHT22;1488;51.548;7.222;2022-07-29T01:58:23;26.60;62.30
2957;DHT22;1488;51.548;7.222;2022-07-29T02:00:53;26.50;62.90
2957;DHT22;1488;51.548;7.222;2022-07-29T02:03:21;26.60;62.20
2957;DHT22;1488;51.548;7.222;2022-07-29T02:05:50;26.50;62.30
2957;DHT22;1488;51.548;7.222;2022-07-29T02:08:19;26.60;62.10
2957;DHT22;1488;51.548;7.222;2022-07-29T02:10:47;26.50;62.20
2957;DHT22;1488;51.548;7.222;2022-07-29T02:13:16;26.60;62.20
2957;DHT22;1488;51.548;7.222;2022-07-29T02:15:44;26.60;62.10
2957;DHT22;1488;51.548;7.222;2022-07-29T02:18:16;26.60;62.20
2957;DHT22;1488;51.548;7.222;2022-07-29T02:20:47;26.60;62.30
2957;DHT22;1488;51.548;7.222;2022-07-29T02:23:17;26.60;62.20
2957;DHT22;1488;51.548;7.222;2022-07-29T02:25:48;26.60;62.20
2957;DHT22;1488;51.548;7.222;2022-07-29T02:28:16;26.60;62.20
2957;DHT22;1488;51.548;7.222;2022-07-29T02:30:44;26.50;62.00
2957;DHT22;1488;51.548;7.222;2022-07-29T02:33:14;26.60;62.10
2957;DHT22;1488;51.548;7.222;2022-07-29T02:35:43;26.60;62.10
2957;DHT22;1488;51.548;7.222;2022-07-29T02:38:14;26.50;62.10
2957;DHT22;1488;51.548;7.222;2022-07-29T02:41:01;26.60;62.30
2957;DHT22;1488;51.548;7.222;2022-07-29T02:43:30;26.50;62.30
2957;DHT22;1488;51.548;7.222;2022-07-29T02:45:59;26.50;62.40
2957;DHT22;1488;51.548;7.222;2022-07-29T02:48:34;26.50;62.30
2957;DHT22;1488;51.548;7.222;2022-07-29T02:51:06;26.60;62.20
2957;DHT22;1488;51.548;7.222;2022-07-29T02:53:35;26.50;62.30
2957;DHT22;1488;51.548;7.222;2022-07-29T02:56:07;26.50;62.30
2957;DHT22;1488;51.548;7.222;2022-07-29T02:58:38;26.50;62.20
2957;DHT22;1488;51.548;7.222;2022-07-29T03:01:11;26.50;62.30
2957;DHT22;1488;51.548;7.222;2022-07-29T03:03:40;26.50;62.40
2957;DHT22;1488;51.548;7.222;2022-07-29T03:06:09;26.50;62.40
2957;DHT22;1488;51.548;7.222;2022-07-29T03:08:37;26.50;62.50
2957;DHT22;1488;51.548;7.222;2022-07-29T03:11:05;26.50;62.50
2957;DHT22;1488;51.548;7.222;2022-07-29T03:13:35;26.50;62.50
2957;DHT22;1488;51.548;7.222;2022-07-29T03:16:03;26.50;62.50
2957;DHT22;1488;51.548;7.222;2022-07-29T03:18:31;26.50;62.50
2957;DHT22;1488;51.548;7.222;2022-07-29T03:20:59;26.50;62.60
2957;DHT22;1488;51.548;7.222;2022-07-29T03:23:26;26.50;62.70
2957;DHT22;1488;51.548;7.222;2022-07-29T03:25:54;26.50;63.70
2957;DHT22;1488;51.548;7.222;2022-07-29T03:28:22;26.50;62.80
2957;DHT22;1488;51.548;7.222;2022-07-29T03:30:49;26.50;62.90
2957;DHT22;1488;51.548;7.222;2022-07-29T03:33:16;26.50;62.90
2957;DHT22;1488;51.548;7.222;2022-07-29T03:35:43;26.50;62.90
2957;DHT22;1488;51.548;7.222;2022-07-29T03:38:11;26.50;63.00
2957;DHT22;1488;51.548;7.222;2022-07-29T03:40:42;26.50;63.00
2957;DHT22;1488;51.548;7.222;2022-07-29T03:43:11;26.50;63.00
2957;DHT22;1488;51.548;7.222;2022-07-29T03:45:41;26.50;62.90
2957;DHT22;1488;51.548;7.222;2022-07-29T03:48:12;26.50;62.90
2957;DHT22;1488;51.548;7.222;2022-07-29T03:50:40;26.50;63.00
2957;DHT22;1488;51.548;7.222;2022-07-29T03:53:07;26.50;62.80
2957;DHT22;1488;51.548;7.222;2022-07-29T03:55:41;26.50;63.20
2957;DHT22;1488;51.548;7.222;2022-07-29T03:58:08;26.50;62.80
2957;DHT22;1488;51.548;7.222;2022-07-29T04:00:36;26.40;62.70
2957;DHT22;1488;51.548;7.222;2022-07-29T04:03:04;26.50;62.90
2957;DHT22;1488;51.548;7.222;2022-07-29T04:05:31;26.50;62.90
2957;DHT22;1488;51.548;7.222;2022-07-29T04:07:58;26.50;63.50
2957;DHT22;1488;51.548;7.222;2022-07-29T04:10:24;26.50;62.80
2957;DHT22;1488;51.548;7.222;2022-07-29T04:12:53;26.50;62.80
2957;DHT22;1488;51.548;7.222;2022-07-29T04:15:20;26.50;62.70
2957;DHT22;1488;51.548;7.222;2022-07-29T04:17:46;26.50;63.00
2957;DHT22;1488;51.548;7.222;2022-07-29T04:20:13;26.50;62.90
2957;DHT22;1488;51.548;7.222;2022-07-29T04:22:40;26.50;62.80
2957;DHT22;1488;51.548;7.222;2022-07-29T04:25:07;26.50;62.90
2957;DHT22;1488;51.548;7.222;2022-07-29T04:27:34;26.50;62.80
2957;DHT22;1488;51.548;7.222;2022-07-29T04:30:22;26.50;62.80
2957;DHT22;1488;51.548;7.222;2022-07-29T04:32:49;26.50;62.90
2957;DHT22;1488;51.548;7.222;2022-07-29T04:35:16;26.50;62.80
2957;DHT22;1488;51.548;7.222;2022-07-29T04:37:43;26.50;63.00
2957;DHT22;1488;51.548;7.222;2022-07-29T04:40:10;26.40;62.90
2957;DHT22;1488;51.548;7.222;2022-07-29T04:42:37;26.40;63.00
2957;DHT22;1488;51.548;7.222;2022-07-29T04:45:05;26.50;63.10
2957;DHT22;1488;51.548;7.222;2022-07-29T04:47:34;26.50;63.30
2957;DHT22;1488;51.548;7.222;2022-07-29T04:50:01;26.50;63.60
2957;DHT22;1488;51.548;7.222;2022-07-29T04:52:27;26.50;63.80
2957;DHT22;1488;51.548;7.222;2022-07-29T04:54:54;26.50;63.90
2957;DHT22;1488;51.548;7.222;2022-07-29T04:57:21;26.50;64.20
2957;DHT22;1488;51.548;7.222;2022-07-29T04:59:48;26.50;64.30
2957;DHT22;1488;51.548;7.222;2022-07-29T05:02:15;26.50;65.20
2957;DHT22;1488;51.548;7.222;2022-07-29T05:04:43;26.50;64.50
2957;DHT22;1488;51.548;7.222;2022-07-29T05:07:10;26.50;64.60
2957;DHT22;1488;51.548;7.222;2022-07-29T05:09:37;26.50;64.70
2957;DHT22;1488;51.548;7.222;2022-07-29T05:12:04;26.50;64.70
2957;DHT22;1488;51.548;7.222;2022-07-29T05:14:32;26.50;64.80
2957;DHT22;1488;51.548;7.222;2022-07-29T05:16:58;26.50;64.70
2957;DHT22;1488;51.548;7.222;2022-07-29T05:19:25;26.50;64.80
2957;DHT22;1488;51.548;7.222;2022-07-29T05:21:53;26.50;64.80
2957;DHT22;1488;51.548;7.222;2022-07-29T05:24:20;26.50;64.90
2957;DHT22;1488;51.548;7.222;2022-07-29T05:26:47;26.50;65.00
2957;DHT22;1488;51.548;7.222;2022-07-29T05:29:14;26.50;65.10
2957;DHT22;1488;51.548;7.222;2022-07-29T05:31:41;26.50;65.10
2957;DHT22;1488;51.548;7.222;2022-07-29T05:34:08;26.50;65.20
2957;DHT22;1488;51.548;7.222;2022-07-29T05:36:34;26.50;66.10
2957;DHT22;1488;51.548;7.222;2022-07-29T05:39:03;26.50;65.40
2957;DHT22;1488;51.548;7.222;2022-07-29T05:41:31;26.50;65.40
2957;DHT22;1488;51.548;7.222;2022-07-29T05:43:58;26.50;65.50
2957;DHT22;1488;51.548;7.222;2022-07-29T05:46:26;26.50;65.50
2957;DHT22;1488;51.548;7.222;2022-07-29T05:48:52;26.50;65.60
2957;DHT22;1488;51.548;7.222;2022-07-29T05:51:19;26.50;65.70
2957;DHT22;1488;51.548;7.222;2022-07-29T05:53:46;26.50;65.80
2957;DHT22;1488;51.548;7.222;2022-07-29T05:56:14;26.50;65.80
2957;DHT22;1488;51.548;7.222;2022-07-29T05:58:41;26.50;65.90
2957;DHT22;1488;51.548;7.222;2022-07-29T06:01:08;26.50;65.90
2957;DHT22;1488;51.548;7.222;2022-07-29T06:03:35;26.50;65.90
2957;DHT22;1488;51.548;7.222;2022-07-29T06:06:03;26.50;65.80
2957;DHT22;1488;51.548;7.222;2022-07-29T06:08:31;26.50;66.50
2957;DHT22;1488;51.548;7.222;2022-07-29T06:10:59;26.50;66.80
2957;DHT22;1488;51.548;7.222;2022-07-29T06:13:27;26.50;66.30
2957;DHT22;1488;51.548;7.222;2022-07-29T06:15:54;26.50;66.10
2957;DHT22;1488;51.548;7.222;2022-07-29T06:18:22;26.50;66.10
2957;DHT22;1488;51.548;7.222;2022-07-29T06:20:49;26.50;66.10
2957;DHT22;1488;51.548;7.222;2022-07-29T06:23:16;26.50;66.30
2957;DHT22;1488;51.548;7.222;2022-07-29T06:25:43;26.50;66.30
2957;DHT22;1488;51.548;7.222;2022-07-29T06:28:10;26.50;66.40
2957;DHT22;1488;51.548;7.222;2022-07-29T06:30:39;26.50;66.50
2957;DHT22;1488;51.548;7.222;2022-07-29T06:33:06;26.50;66.40
2957;DHT22;1488;51.548;7.222;2022-07-29T06:35:33;26.50;66.50
2957;DHT22;1488;51.548;7.222;2022-07-29T06:38:02;26.50;66.60
2957;DHT22;1488;51.548;7.222;2022-07-29T06:40:29;26.40;66.60
2957;DHT22;1488;51.548;7.222;2022-07-29T06:43:13;26.40;68.60
2957;DHT22;1488;51.548;7.222;2022-07-29T06:45:42;26.40;69.60
2957;DHT22;1488;51.548;7.222;2022-07-29T06:48:09;26.20;70.70
2957;DHT22;1488;51.548;7.222;2022-07-29T06:50:36;26.00;71.00
2957;DHT22;1488;51.548;7.222;2022-07-29T06:53:03;25.90;72.80
2957;DHT22;1488;51.548;7.222;2022-07-29T06:55:31;25.80;72.50
2957;DHT22;1488;51.548;7.222;2022-07-29T06:57:58;25.70;72.50
2957;DHT22;1488;51.548;7.222;2022-07-29T07:00:25;25.60;72.10
2957;DHT22;1488;51.548;7.222;2022-07-29T07:02:53;25.50;72.10
2957;DHT22;1488;51.548;7.222;2022-07-29T07:05:20;25.40;72.20
2957;DHT22;1488;51.548;7.222;2022-07-29T07:07:47;25.30;72.10
2957;DHT22;1488;51.548;7.222;2022-07-29T07:10:14;25.30;72.30
2957;DHT22;1488;51.548;7.222;2022-07-29T07:12:41;25.30;72.60
2957;DHT22;1488;51.548;7.222;2022-07-29T07:15:08;25.30;73.20
2957;DHT22;1488;51.548;7.222;2022-07-29T07:17:36;25.30;74.00
2957;DHT22;1488;51.548;7.222;2022-07-29T07:20:05;25.20;73.70
2957;DHT22;1488;51.548;7.222;2022-07-29T07:22:32;25.20;74.00
2957;DHT22;1488;51.548;7.222;2022-07-29T07:24:59;25.20;74.00
2957;DHT22;1488;51.548;7.222;2022-07-29T07:27:26;25.20;73.70
2957;DHT22;1488;51.548;7.222;2022-07-29T07:29:53;25.10;73.40
2957;DHT22;1488;51.548;7.222;2022-07-29T07:32:20;25.10;73.10
2957;DHT22;1488;51.548;7.222;2022-07-29T07:34:47;25.20;74.40
2957;DHT22;1488;51.548;7.222;2022-07-29T07:37:15;25.20;74.70
2957;DHT22;1488;51.548;7.222;2022-07-29T07:39:44;25.20;74.20
2957;DHT22;1488;51.548;7.222;2022-07-29T07:42:11;25.20;75.20
2957;DHT22;1488;51.548;7.222;2022-07-29T07:44:38;25.20;74.80
2957;DHT22;1488;51.548;7.222;2022-07-29T07:47:05;25.20;74.70
2957;DHT22;1488;51.548;7.222;2022-07-29T07:49:32;25.30;74.40
2957;DHT22;1488;51.548;7.222;2022-07-29T07:51:59;25.40;74.00
2957;DHT22;1488;51.548;7.222;2022-07-29T07:54:27;25.50;73.40
2957;DHT22;1488;51.548;7.222;2022-07-29T07:56:54;25.50;72.50
2957;DHT22;1488;51.548;7.222;2022-07-29T07:59:21;25.60;72.00
2957;DHT22;1488;51.548;7.222;2022-07-29T08:01:48;25.70;71.70
2957;DHT22;1488;51.548;7.222;2022-07-29T08:04:15;25.70;71.10
2957;DHT22;1488;51.548;7.222;2022-07-29T08:06:42;25.80;71.00
2957;DHT22;1488;51.548;7.222;2022-07-29T08:09:09;25.80;70.60
2957;DHT22;1488;51.548;7.222;2022-07-29T08:11:37;25.90;71.20
2957;DHT22;1488;51.548;7.222;2022-07-29T08:14:04;26.00;70.10
2957;DHT22;1488;51.548;7.222;2022-07-29T08:16:31;26.00;69.90
2957;DHT22;1488;51.548;7.222;2022-07-29T08:18:58;26.00;69.70
2957;DHT22;1488;51.548;7.222;2022-07-29T08:21:24;26.00;69.60
2957;DHT22;1488;51.548;7.222;2022-07-29T08:23:51;26.10;70.50
2957;DHT22;1488;51.548;7.222;2022-07-29T08:26:40;26.10;69.50
2957;DHT22;1488;51.548;7.222;2022-07-29T08:29:07;26.10;69.40
2957;DHT22;1488;51.548;7.222;2022-07-29T08:31:34;26.10;69.20
2957;DHT22;1488;51.548;7.222;2022-07-29T08:34:00;26.10;69.00
2957;DHT22;1488;51.548;7.222;2022-07-29T08:36:28;26.10;69.00
2957;DHT22;1488;51.548;7.222;2022-07-29T08:38:55;26.10;68.90
2957;DHT22;1488;51.548;7.222;2022-07-29T08:41:22;26.20;68.90
2957;DHT22;1488;51.548;7.222;2022-07-29T08:43:51;26.20;68.90
2957;DHT22;1488;51.548;7.222;2022-07-29T08:46:19;26.20;68.80
2957;DHT22;1488;51.548;7.222;2022-07-29T08:48:46;26.20;69.60
2957;DHT22;1488;51.548;7.222;2022-07-29T08:51:14;26.20;68.70
2957;DHT22;1488;51.548;7.222;2022-07-29T08:53:43;26.20;68.70
2957;DHT22;1488;51.548;7.222;2022-07-29T08:56:13;26.20;68.60
2957;DHT22;1488;51.548;7.222;2022-07-29T08:58:40;26.30;68.70
2957;DHT22;1488;51.548;7.222;2022-07-29T09:01:09;26.30;68.70
2957;DHT22;1488;51.548;7.222;2022-07-29T09:03:37;26.30;68.60
2957;DHT22;1488;51.548;7.222;2022-07-29T09:06:05;26.30;68.60
2957;DHT22;1488;51.548;7.222;2022-07-29T09:08:32;26.30;68.60
2957;DHT22;1488;51.548;7.222;2022-07-29T09:11:01;26.30;68.60
2957;DHT22;1488;51.548;7.222;2022-07-29T09:13:28;26.30;68.50
2957;DHT22;1488;51.548;7.222;2022-07-29T09:15:55;26.30;68.50
2957;DHT22;1488;51.548;7.222;2022-07-29T09:18:36;26.30;69.30
2957;DHT22;1488;51.548;7.222;2022-07-29T09:21:04;26.30;68.40
2957;DHT22;1488;51.548;7.222;2022-07-29T09:24:02;26.30;68.50
2957;DHT22;1488;51.548;7.222;2022-07-29T09:26:31;26.30;68.50
2957;DHT22;1488;51.548;7.222;2022-07-29T09:28:59;26.20;68.40
2957;DHT22;1488;51.548;7.222;2022-07-29T09:31:32;26.30;68.40
2957;DHT22;1488;51.548;7.222;2022-07-29T09:34:01;26.30;68.40
2957;DHT22;1488;51.548;7.222;2022-07-29T09:36:29;26.30;68.40
2957;DHT22;1488;51.548;7.222;2022-07-29T09:38:59;26.30;68.40
2957;DHT22;1488;51.548;7.222;2022-07-29T09:41:27;26.30;68.40
2957;DHT22;1488;51.548;7.222;2022-07-29T09:43:55;26.30;68.50
2957;DHT22;1488;51.548;7.222;2022-07-29T09:46:23;26.30;68.30
2957;DHT22;1488;51.548;7.222;2022-07-29T09:49:07;26.30;68.40
2957;DHT22;1488;51.548;7.222;2022-07-29T09:51:34;26.40;68.40
2957;DHT22;1488;51.548;7.222;2022-07-29T09:54:01;26.30;68.30
2957;DHT22;1488;51.548;7.222;2022-07-29T09:56:40;26.30;68.20
2957;DHT22;1488;51.548;7.222;2022-07-29T09:59:08;26.40;68.10
2957;DHT22;1488;51.548;7.222;2022-07-29T10:01:37;26.40;68.10
2957;DHT22;1488;51.548;7.222;2022-07-29T10:04:04;26.30;68.00
2957;DHT22;1488;51.548;7.222;2022-07-29T10:06:32;26.40;68.00
2957;DHT22;1488;51.548;7.222;2022-07-29T10:09:07;26.40;68.10
2957;DHT22;1488;51.548;7.222;2022-07-29T10:11:34;26.40;68.00
2957;DHT22;1488;51.548;7.222;2022-07-29T10:14:02;26.40;68.00
2957;DHT22;1488;51.548;7.222;2022-07-29T10:16:29;26.40;68.00
2957;DHT22;1488;51.548;7.222;2022-07-29T10:18:58;26.40;68.00
2957;DHT22;1488;51.548;7.222;2022-07-29T10:21:26;26.40;68.00
2957;DHT22;1488;51.548;7.222;2022-07-29T10:23:55;26.40;67.90
2957;DHT22;1488;51.548;7.222;2022-07-29T10:26:23;26.40;68.00
2957;DHT22;1488;51.548;7.222;2022-07-29T10:28:50;26.40;68.00
2957;DHT22;1488;51.548;7.222;2022-07-29T10:31:24;26.40;68.00
2957;DHT22;1488;51.548;7.222;2022-07-29T10:34:01;26.40;68.00
2957;DHT22;1488;51.548;7.222;2022-07-29T10:36:43;26.40;68.00
2957;DHT22;1488;51.548;7.222;2022-07-29T10:39:22;26.40;68.00
2957;DHT22;1488;51.548;7.222;2022-07-29T10:41:59;26.40;68.00
2957;DHT22;1488;51.548;7.222;2022-07-29T10:44:27;26.40;68.10
2957;DHT22;1488;51.548;7.222;2022-07-29T10:46:55;26.40;68.10
2957;DHT22;1488;51.548;7.222;2022-07-29T10:49:23;26.40;68.00
2957;DHT22;1488;51.548;7.222;2022-07-29T10:52:03;26.40;68.00
2957;DHT22;1488;51.548;7.222;2022-07-29T10:54:46;26.40;68.00
2957;DHT22;1488;51.548;7.222;2022-07-29T10:57:18;26.40;68.00
2957;DHT22;1488;51.548;7.222;2022-07-29T10:59:47;26.40;68.00
2957;DHT22;1488;51.548;7.222;2022-07-29T11:02:45;26.40;68.00
2957;DHT22;1488;51.548;7.222;2022-07-29T11:05:18;26.40;68.00
2957;DHT22;1488;51.548;7.222;2022-07-29T11:08:16;26.40;68.00
2957;DHT22;1488;51.548;7.222;2022-07-29T11:10:47;26.40;68.00
2957;DHT22;1488;51.548;7.222;2022-07-29T11:13:46;26.30;68.00
2957;DHT22;1488;51.548;7.222;2022-07-29T11:16:14;26.40;68.00
2957;DHT22;1488;51.548;7.222;2022-07-29T11:21:45;26.40;68.00
2957;DHT22;1488;51.548;7.222;2022-07-29T11:24:13;26.30;68.00
2957;DHT22;1488;51.548;7.222;2022-07-29T11:26:42;26.40;68.00
2957;DHT22;1488;51.548;7.222;2022-07-29T11:29:16;26.40;68.00
2957;DHT22;1488;51.548;7.222;2022-07-29T11:31:46;26.40;68.00
2957;DHT22;1488;51.548;7.222;2022-07-29T11:34:18;26.40;68.00
2957;DHT22;1488;51.548;7.222;2022-07-29T11:37:13;26.40;68.00
2957;DHT22;1488;51.548;7.222;2022-07-29T11:39:41;26.40;67.80
2957;DHT22;1488;51.548;7.222;2022-07-29T11:42:37;26.40;67.90
2957;DHT22;1488;51.548;7.222;2022-07-29T11:45:06;26.40;67.80
2957;DHT22;1488;51.548;7.222;2022-07-29T11:47:35;26.40;67.80
2957;DHT22;1488;51.548;7.222;2022-07-29T11:50:05;26.40;67.80
2957;DHT22;1488;51.548;7.222;2022-07-29T11:52:33;26.40;67.80
2957;DHT22;1488;51.548;7.222;2022-07-29T11:55:04;26.40;67.90
2957;DHT22;1488;51.548;7.222;2022-07-29T11:57:31;26.50;68.20
2957;DHT22;1488;51.548;7.222;2022-07-29T12:00:03;26.50;68.10
2957;DHT22;1488;51.548;7.222;2022-07-29T12:02:38;26.50;68.10
2957;DHT22;1488;51.548;7.222;2022-07-29T12:05:07;26.50;68.00
2957;DHT22;1488;51.548;7.222;2022-07-29T12:07:34;26.50;68.10
2957;DHT22;1488;51.548;7.222;2022-07-29T12:10:03;26.50;68.10
2957;DHT22;1488;51.548;7.222;2022-07-29T12:12:30;26.50;68.00
2957;DHT22;1488;51.548;7.222;2022-07-29T12:14:57;26.50;68.00
2957;DHT22;1488;51.548;7.222;2022-07-29T12:17:27;26.50;68.00
2957;DHT22;1488;51.548;7.222;2022-07-29T12:19:54;26.60;68.10
2957;DHT22;1488;51.548;7.222;2022-07-29T12:22:28;26.60;68.10
2957;DHT22;1488;51.548;7.222;2022-07-29T12:24:57;26.60;68.20
2957;DHT22;1488;51.548;7.222;2022-07-29T12:27:27;26.60;68.10
2957;DHT22;1488;51.548;7.222;2022-07-29T12:29:56;26.60;68.20
2957;DHT22;1488;51.548;7.222;2022-07-29T12:32:32;26.60;68.20
2957;DHT22;1488;51.548;7.222;2022-07-29T12:35:03;26.60;68.20
2957;DHT22;1488;51.548;7.222;2022-07-29T12:37:31;26.60;68.20
2957;DHT22;1488;51.548;7.222;2022-07-29T12:39:58;26.60;68.30
2957;DHT22;1488;51.548;7.222;2022-07-29T12:42:25;26.60;68.20
2957;DHT22;1488;51.548;7.222;2022-07-29T12:44:51;26.60;68.30
2957;DHT22;1488;51.548;7.222;2022-07-29T12:47:19;26.70;68.40
2957;DHT22;1488;51.548;7.222;2022-07-29T12:49:48;26.60;68.20
2957;DHT22;1488;51.548;7.222;2022-07-29T12:52:26;26.70;68.40
2957;DHT22;1488;51.548;7.222;2022-07-29T12:54:53;26.70;68.40
2957;DHT22;1488;51.548;7.222;2022-07-29T12:57:20;26.70;68.40
2957;DHT22;1488;51.548;7.222;2022-07-29T13:00:08;26.70;68.40
2957;DHT22;1488;51.548;7.222;2022-07-29T13:02:36;26.70;68.30
2957;DHT22;1488;51.548;7.222;2022-07-29T13:05:05;26.70;68.40
2957;DHT22;1488;51.548;7.222;2022-07-29T13:07:34;26.80;68.40
2957;DHT22;1488;51.548;7.222;2022-07-29T13:10:13;26.80;68.40
2957;DHT22;1488;51.548;7.222;2022-07-29T13:13:04;26.80;68.40
2957;DHT22;1488;51.548;7.222;2022-07-29T13:15:32;26.80;68.30
2957;DHT22;1488;51.548;7.222;2022-07-29T13:17:59;26.80;68.50
2957;DHT22;1488;51.548;7.222;2022-07-29T13:20:29;26.80;68.50
2957;DHT22;1488;51.548;7.222;2022-07-29T13:22:56;26.80;68.50
2957;DHT22;1488;51.548;7.222;2022-07-29T13:25:25;26.80;68.50
2957;DHT22;1488;51.548;7.222;2022-07-29T13:27:52;26.80;68.50
2957;DHT22;1488;51.548;7.222;2022-07-29T13:30:20;26.80;68.50
2957;DHT22;1488;51.548;7.222;2022-07-29T13:32:47;26.80;68.50
2957;DHT22;1488;51.548;7.222;2022-07-29T13:35:14;26.80;68.50
2957;DHT22;1488;51.548;7.222;2022-07-29T13:37:42;26.80;68.50
2957;DHT22;1488;51.548;7.222;2022-07-29T13:40:10;26.80;68.50
2957;DHT22;1488;51.548;7.222;2022-07-29T13:42:38;26.80;68.50
2957;DHT22;1488;51.548;7.222;2022-07-29T13:45:06;26.80;68.50
2957;DHT22;1488;51.548;7.222;2022-07-29T13:47:33;26.90;68.50
2957;DHT22;1488;51.548;7.222;2022-07-29T13:50:00;26.90;68.50
2957;DHT22;1488;51.548;7.222;2022-07-29T13:52:27;26.90;68.50
2957;DHT22;1488;51.548;7.222;2022-07-29T13:54:56;26.90;68.50
2957;DHT22;1488;51.548;7.222;2022-07-29T13:57:22;26.90;68.50
2957;DHT22;1488;51.548;7.222;2022-07-29T13:59:49;26.90;68.50
2957;DHT22;1488;51.548;7.222;2022-07-29T14:02:16;26.90;68.50
2957;DHT22;1488;51.548;7.222;2022-07-29T14:04:44;26.80;68.50
2957;DHT22;1488;51.548;7.222;2022-07-29T14:07:10;26.80;68.40
2957;DHT22;1488;51.548;7.222;2022-07-29T14:09:37;26.90;68.50
2957;DHT22;1488;51.548;7.222;2022-07-29T14:12:06;26.90;68.50
2957;DHT22;1488;51.548;7.222;2022-07-29T14:14:33;26.90;68.60
2957;DHT22;1488;51.548;7.222;2022-07-29T14:17:02;26.80;68.60
2957;DHT22;1488;51.548;7.222;2022-07-29T14:19:31;26.90;68.70
2957;DHT22;1488;51.548;7.222;2022-07-29T14:22:01;26.80;68.40
2957;DHT22;1488;51.548;7.222;2022-07-29T14:24:28;26.80;68.20
2957;DHT22;1488;51.548;7.222;2022-07-29T14:26:55;26.80;68.10
2957;DHT22;1488;51.548;7.222;2022-07-29T14:29:24;26.80;68.10
2957;DHT22;1488;51.548;7.222;2022-07-29T14:31:50;26.80;68.10
2957;DHT22;1488;51.548;7.222;2022-07-29T14:34:17;26.80;68.20
2957;DHT22;1488;51.548;7.222;2022-07-29T14:36:44;26.80;68.20
2957;DHT22;1488;51.548;7.222;2022-07-29T14:39:11;26.80;68.10
2957;DHT22;1488;51.548;7.222;2022-07-29T14:41:38;26.80;68.30
2957;DHT22;1488;51.548;7.222;2022-07-29T14:44:05;26.80;68.10
2957;DHT22;1488;51.548;7.222;2022-07-29T14:46:33;26.80;68.10
2957;DHT22;1488;51.548;7.222;2022-07-29T14:49:00;26.80;68.10
2957;DHT22;1488;51.548;7.222;2022-07-29T14:51:26;26.70;67.90
2957;DHT22;1488;51.548;7.222;2022-07-29T14:53:53;26.80;68.00
2957;DHT22;1488;51.548;7.222;2022-07-29T14:56:21;26.80;67.90
2957;DHT22;1488;51.548;7.222;2022-07-29T14:58:48;26.70;67.90
2957;DHT22;1488;51.548;7.222;2022-07-29T15:01:15;26.80;68.00
2957;DHT22;1488;51.548;7.222;2022-07-29T15:03:43;26.70;67.90
2957;DHT22;1488;51.548;7.222;2022-07-29T15:06:11;26.70;67.90
2957;DHT22;1488;51.548;7.222;2022-07-29T15:08:38;26.80;68.80
2957;DHT22;1488;51.548;7.222;2022-07-29T15:11:04;26.80;68.00
2957;DHT22;1488;51.548;7.222;2022-07-29T15:13:31;26.80;68.00
2957;DHT22;1488;51.548;7.222;2022-07-29T15:15:59;26.80;68.00
2957;DHT22;1488;51.548;7.222;2022-07-29T15:18:26;26.70;67.90
2957;DHT22;1488;51.548;7.222;2022-07-29T15:20:54;26.70;67.70
2957;DHT22;1488;51.548;7.222;2022-07-29T15:23:21;26.80;67.90
2957;DHT22;1488;51.548;7.222;2022-07-29T15:25:48;26.70;67.70
2957;DHT22;1488;51.548;7.222;2022-07-29T15:28:14;26.70;67.80
2957;DHT22;1488;51.548;7.222;2022-07-29T15:30:41;26.70;67.80
2957;DHT22;1488;51.548;7.222;2022-07-29T15:33:08;26.70;67.90
2957;DHT22;1488;51.548;7.222;2022-07-29T15:35:35;26.70;68.00
2957;DHT22;1488;51.548;7.222;2022-07-29T15:38:03;26.70;68.10
2957;DHT22;1488;51.548;7.222;2022-07-29T15:40:30;26.70;68.10
2957;DHT22;1488;51.548;7.222;2022-07-29T15:42:57;26.70;68.10
2957;DHT22;1488;51.548;7.222;2022-07-29T15:45:35;26.70;68.10
2957;DHT22;1488;51.548;7.222;2022-07-29T15:48:04;26.70;68.10
2957;DHT22;1488;51.548;7.222;2022-07-29T15:50:31;26.70;68.10
2957;DHT22;1488;51.548;7.222;2022-07-29T15:52:58;26.70;68.20
2957;DHT22;1488;51.548;7.222;2022-07-29T15:55:26;26.70;68.20
2957;DHT22;1488;51.548;7.222;2022-07-29T15:57:53;26.70;68.20
2957;DHT22;1488;51.548;7.222;2022-07-29T16:00:21;26.70;68.20
2957;DHT22;1488;51.548;7.222;2022-07-29T16:48:30;26.70;68.80
2957;DHT22;1488;51.548;7.222;2022-07-29T16:50:57;26.60;69.20
2957;DHT22;1488;51.548;7.222;2022-07-29T16:53:24;26.70;70.10
2957;DHT22;1488;51.548;7.222;2022-07-29T16:55:51;26.70;69.20
2957;DHT22;1488;51.548;7.222;2022-07-29T16:58:18;26.80;69.30
2957;DHT22;1488;51.548;7.222;2022-07-29T17:00:44;26.80;69.20
2957;DHT22;1488;51.548;7.222;2022-07-29T17:03:11;26.80;69.20